Time;durP1;ratioP1;P1;durP2;ratioP2;P2;SDS_P1;SDS_P2;PMS_P1;PMS_P2;Temp;Humidity;BMP_temperature;BMP_pressure;BME280_temperature;BME280_humidity;BME280_pressure;Samples;Min_cycle;Max_cycle;Signal;HPM_P1;HPM_P2
2023/04/28 00:01:41;;;;;;;4.28;3.88;;;;;;;16.14;nan;99247.69;4995923;28;20862;-90
2023/04/28 00:04:07;;;;;;;6.07;3.90;;;;;;;16.09;nan;99239.34;5003324;28;20434;-89
2023/04/28 00:06:32;;;;;;;4.67;3.73;;;;;;;16.01;nan;99236.56;5004671;28;20712;-88
2023/04/28 00:08:57;;;;;;;4.43;3.87;;;;;;;15.95;nan;99233.66;5018069;28;20195;-92
2023/04/28 00:11:23;;;;;;;3.53;3.23;;;;;;;15.85;nan;99234.50;5016059;28;20771;-87
2023/04/28 00:13:48;;;;;;;3.80;3.27;;;;;;;15.81;nan;99235.75;5011433;28;20215;-87
2023/04/28 00:16:13;;;;;;;3.67;3.20;;;;;;;15.77;nan;99233.50;5007363;28;20243;-87
2023/04/28 00:18:39;;;;;;;4.20;3.40;;;;;;;15.77;nan;99228.22;5005953;28;20327;-88
2023/04/28 00:21:05;;;;;;;2.90;2.63;;;;;;;15.69;nan;99224.47;4999043;28;20363;-87
2023/04/28 00:23:30;;;;;;;5.40;3.30;;;;;;;15.63;nan;99221.50;5000173;28;20298;-88
2023/04/28 00:25:56;;;;;;;3.30;2.77;;;;;;;15.60;nan;99211.19;5002557;28;20530;-89
2023/04/28 00:28:22;;;;;;;7.90;3.20;;;;;;;15.59;nan;99206.88;5003350;28;20211;-91
2023/04/28 00:30:47;;;;;;;3.57;3.27;;;;;;;15.60;nan;99212.03;5004759;28;20478;-90
2023/04/28 00:33:13;;;;;;;4.17;3.60;;;;;;;15.63;nan;99211.72;5001317;28;20510;-91
2023/04/28 00:35:39;;;;;;;5.50;3.80;;;;;;;15.66;nan;99206.19;5001006;28;20437;-87
2023/04/28 00:38:04;;;;;;;5.20;3.78;;;;;;;15.68;nan;99212.19;5002057;28;20194;-86
2023/04/28 00:40:33;;;;;;;8.63;4.20;;;;;;;15.70;nan;99202.28;4996475;28;20213;-89
2023/04/28 00:42:59;;;;;;;4.55;3.97;;;;;;;15.73;nan;99197.72;4999231;28;20322;-87
2023/04/28 00:45:24;;;;;;;3.40;2.90;;;;;;;15.75;nan;99211.66;4995148;28;20233;-87
2023/04/28 00:47:50;;;;;;;6.70;3.17;;;;;;;15.75;nan;99193.13;4998934;28;20205;-92
2023/04/28 00:50:15;;;;;;;3.50;2.57;;;;;;;15.73;nan;99203.84;4997391;28;20259;-89
2023/04/28 00:52:42;;;;;;;6.05;3.00;;;;;;;15.68;nan;99209.53;5004525;28;20191;-90
2023/04/28 00:55:08;;;;;;;3.00;2.70;;;;;;;15.62;nan;99210.06;4998766;28;20353;-91
2023/04/28 00:57:35;;;;;;;7.38;2.92;;;;;;;15.61;nan;99213.72;4992695;28;20190;-89
2023/04/28 01:00:01;;;;;;;2.55;2.35;;;;;;;15.60;nan;99216.47;5001184;28;20211;-88
2023/04/28 01:02:28;;;;;;;5.20;3.78;;;;;;;15.54;nan;99215.22;4997831;28;20696;-88
2023/04/28 01:04:55;;;;;;;4.13;2.80;;;;;;;15.52;nan;99222.47;5000209;28;20281;-86
2023/04/28 01:07:21;;;;;;;4.95;3.10;;;;;;;15.47;nan;99217.59;4997954;28;20315;-87
2023/04/28 01:09:47;;;;;;;3.47;2.53;;;;;;;15.39;nan;99217.47;4998105;28;20310;-89
2023/04/28 01:12:14;;;;;;;4.45;3.40;;;;;;;15.38;nan;99223.72;4996333;28;20301;-87
2023/04/28 01:14:48;;;;;;;3.28;2.80;;;;;;;15.40;nan;99239.47;4989056;28;20291;-85
2023/04/28 01:17:13;;;;;;;4.20;3.30;;;;;;;15.39;nan;99232.47;4987435;28;20199;-85
2023/04/28 01:19:40;;;;;;;4.78;3.50;;;;;;;15.39;nan;99258.94;4991433;28;20207;-84
2023/04/28 01:22:05;;;;;;;3.83;2.73;;;;;;;15.39;nan;99246.56;4993021;28;20199;-83
2023/04/28 01:24:31;;;;;;;4.70;3.27;;;;;;;15.42;nan;99248.13;4992742;28;21196;-85
2023/04/28 01:27:01;;;;;;;3.88;3.33;;;;;;;15.42;nan;99261.34;4994511;28;20203;-85
2023/04/28 01:29:27;;;;;;;4.27;2.80;;;;;;;15.41;nan;99260.47;4988371;28;20217;-83
2023/04/28 01:31:52;;;;;;;4.20;3.50;;;;;;;15.39;nan;99256.31;4983954;28;21005;-84
2023/04/28 01:34:18;;;;;;;6.07;3.30;;;;;;;15.37;nan;99259.09;4982196;28;20406;-83
2023/04/28 01:36:44;;;;;;;4.30;3.50;;;;;;;15.35;nan;99260.22;4981291;28;20486;-83
2023/04/28 01:39:09;;;;;;;5.00;3.23;;;;;;;15.31;nan;99257.00;4981987;28;20647;-83
2023/04/28 01:41:35;;;;;;;4.60;3.63;;;;;;;15.24;nan;99253.22;4980795;28;20205;-83
2023/04/28 01:44:02;;;;;;;4.95;3.53;;;;;;;15.17;nan;99266.13;4984286;28;20229;-83
2023/04/28 01:46:28;;;;;;;3.77;3.47;;;;;;;15.10;nan;99275.63;4983247;28;20580;-83
2023/04/28 01:48:53;;;;;;;5.27;4.13;;;;;;;15.08;nan;99288.13;4987972;28;20488;-83
2023/04/28 01:51:18;;;;;;;4.20;3.80;;;;;;;15.07;nan;99299.69;4985261;28;20228;-83
2023/04/28 01:53:44;;;;;;;5.53;4.70;;;;;;;15.02;nan;99286.03;4991128;28;20551;-83
2023/04/28 01:56:10;;;;;;;6.60;4.13;;;;;;;14.92;nan;99293.06;4990548;28;20209;-84
2023/04/28 01:58:35;;;;;;;5.73;4.23;;;;;;;14.80;nan;99292.34;4989854;28;20240;-83
2023/04/28 02:01:01;;;;;;;4.47;3.80;;;;;;;14.69;nan;99293.25;4989057;28;20218;-83
2023/04/28 02:03:27;;;;;;;7.70;4.77;;;;;;;14.62;nan;99294.75;4990883;28;20492;-83
2023/04/28 02:05:53;;;;;;;5.27;4.77;;;;;;;14.60;nan;99294.03;4986932;28;20221;-82
2023/04/28 02:08:19;;;;;;;5.27;3.77;;;;;;;14.53;nan;99293.72;4985007;28;20471;-83
2023/04/28 02:10:44;;;;;;;7.20;4.50;;;;;;;14.42;nan;99282.34;4980055;28;20295;-82
2023/04/28 02:13:10;;;;;;;6.63;4.40;;;;;;;14.32;nan;99296.34;4985792;28;20621;-82
2023/04/28 02:15:40;;;;;;;6.35;4.20;;;;;;;14.24;nan;99290.03;4985014;28;20260;-82
2023/04/28 02:18:06;;;;;;;4.50;3.80;;;;;;;14.14;nan;99290.78;4981484;28;20321;-82
2023/04/28 02:20:31;;;;;;;4.50;4.10;;;;;;;14.10;nan;99291.19;4993358;28;20296;-81
2023/04/28 02:22:57;;;;;;;4.33;3.37;;;;;;;14.05;nan;99291.56;5001936;28;20217;-81
2023/04/28 02:25:22;;;;;;;3.47;3.17;;;;;;;13.99;nan;99278.88;5007498;28;20222;-81
2023/04/28 02:27:47;;;;;;;5.27;3.83;;;;;;;13.98;nan;99276.34;5010652;28;20199;-81
2023/04/28 02:30:13;;;;;;;3.67;3.40;;;;;;;13.98;nan;99282.47;5011596;28;20318;-80
2023/04/28 02:32:38;;;;;;;5.77;3.17;;;;;;;13.95;nan;99275.63;5015120;28;20194;-80
2023/04/28 02:35:04;;;;;;;5.47;4.15;;;;;;;13.94;nan;99273.97;5018562;28;20453;-81
2023/04/28 02:37:30;;;;;;;4.20;3.60;;;;;;;13.94;nan;99273.16;5006399;28;20557;-84
2023/04/28 02:39:55;;;;;;;5.40;3.90;;;;;;;13.97;nan;99272.06;4999035;28;20583;-82
2023/04/28 02:42:21;;;;;;;4.67;2.80;;;;;;;13.99;nan;99270.09;5025190;28;20239;-81
2023/04/28 02:44:46;;;;;;;6.87;3.63;;;;;;;14.02;nan;99264.59;5012709;28;20266;-81
2023/04/28 02:47:12;;;;;;;3.77;3.37;;;;;;;14.04;nan;99263.50;5018362;28;20196;-81
2023/04/28 02:49:37;;;;;;;4.90;3.60;;;;;;;14.06;nan;99260.72;5010993;28;20212;-81
2023/04/28 02:52:03;;;;;;;5.90;4.00;;;;;;;14.07;nan;99255.31;5017975;28;20236;-81
2023/04/28 02:54:29;;;;;;;4.20;3.80;;;;;;;14.11;nan;99256.72;5013368;28;20854;-81
2023/04/28 02:56:56;;;;;;;4.65;4.20;;;;;;;14.12;nan;99249.63;5015305;28;20204;-83
2023/04/28 02:59:23;;;;;;;4.55;3.67;;;;;;;14.11;nan;99245.31;5030543;28;20232;-81
2023/04/28 03:01:50;;;;;;;7.63;4.28;;;;;;;14.09;nan;99250.72;5029116;28;20255;-83
2023/04/28 03:04:16;;;;;;;6.50;4.10;;;;;;;14.07;nan;99246.53;5028208;28;20243;-83
2023/04/28 03:06:41;;;;;;;5.97;4.40;;;;;;;14.03;nan;99243.31;4999003;28;20215;-82
2023/04/28 03:09:08;;;;;;;4.93;4.43;;;;;;;14.00;nan;99235.66;4993895;28;20205;-83
2023/04/28 03:11:33;;;;;;;6.82;4.30;;;;;;;14.01;nan;99247.06;4983769;28;20195;-81
2023/04/28 03:14:00;;;;;;;5.10;4.13;;;;;;;14.02;nan;99241.66;4989962;28;20216;-82
2023/04/28 03:16:25;;;;;;;7.57;4.53;;;;;;;14.02;nan;99243.47;4987468;28;20201;-83
2023/04/28 03:18:51;;;;;;;4.47;4.10;;;;;;;14.01;nan;99241.78;4989105;28;20205;-83
2023/04/28 03:21:18;;;;;;;6.10;4.65;;;;;;;14.00;nan;99238.28;4989526;28;21151;-83
2023/04/28 03:23:43;;;;;;;5.20;4.70;;;;;;;14.03;nan;99247.75;4986102;28;20713;-84
2023/04/28 03:26:09;;;;;;;5.17;4.63;;;;;;;14.06;nan;99234.31;4986094;28;20207;-84
2023/04/28 03:28:34;;;;;;;5.30;4.17;;;;;;;14.08;nan;99235.03;4988656;28;20207;-82
2023/04/28 03:31:00;;;;;;;5.30;4.70;;;;;;;14.13;nan;99235.47;4984791;28;20953;-83
2023/04/28 03:33:25;;;;;;;5.63;5.07;;;;;;;14.17;nan;99231.59;4981995;28;20285;-82
2023/04/28 03:35:52;;;;;;;4.45;4.05;;;;;;;14.21;nan;99230.38;4982171;28;20747;-82
2023/04/28 03:38:18;;;;;;;4.28;3.67;;;;;;;14.26;nan;99225.53;4983610;28;20208;-83
2023/04/28 03:40:44;;;;;;;5.03;4.50;;;;;;;14.28;nan;99223.59;4985176;28;20363;-82
2023/04/28 03:43:09;;;;;;;5.90;4.80;;;;;;;14.28;nan;99231.50;4987361;28;20652;-82
2023/04/28 03:45:40;;;;;;;5.22;4.20;;;;;;;14.29;nan;99220.00;4977706;28;20673;-82
2023/04/28 03:48:07;;;;;;;7.50;5.40;;;;;;;14.29;nan;99227.91;4976751;28;20201;-83
2023/04/28 03:50:32;;;;;;;5.60;4.30;;;;;;;14.32;nan;99230.28;4976294;28;20212;-82
2023/04/28 03:52:58;;;;;;;7.03;5.00;;;;;;;14.30;nan;99220.81;4980820;28;20206;-82
2023/04/28 03:55:24;;;;;;;4.97;4.47;;;;;;;14.25;nan;99223.03;4979136;28;21235;-83
2023/04/28 03:57:51;;;;;;;5.65;3.80;;;;;;;14.19;nan;99224.38;4983123;28;20231;-82
2023/04/28 04:00:17;;;;;;;7.35;4.45;;;;;;;14.16;nan;99220.19;4979112;28;20248;-82
2023/04/28 04:02:45;;;;;;;7.75;4.93;;;;;;;14.15;nan;99220.34;4978179;28;20204;-84
2023/04/28 04:05:11;;;;;;;7.25;4.65;;;;;;;14.16;nan;99225.47;4979775;28;20213;-79
2023/04/28 04:07:36;;;;;;;6.37;4.50;;;;;;;14.19;nan;99218.25;4973894;28;20208;-83
2023/04/28 04:10:02;;;;;;;4.47;4.07;;;;;;;14.21;nan;99216.34;4971931;28;20233;-82
2023/04/28 04:12:27;;;;;;;5.10;4.50;;;;;;;14.22;nan;99208.25;4974482;28;20204;-81
2023/04/28 04:14:53;;;;;;;6.37;4.70;;;;;;;14.23;nan;99201.16;4972051;28;20215;-81
2023/04/28 04:17:19;;;;;;;10.35;5.82;;;;;;;14.26;nan;99204.41;4969131;28;20224;-82
2023/04/28 04:19:45;;;;;;;6.70;5.10;;;;;;;14.29;nan;99200.66;4974953;28;20315;-83
2023/04/28 04:22:10;;;;;;;4.40;4.00;;;;;;;14.32;nan;99203.03;4975929;28;20201;-83
2023/04/28 04:24:36;;;;;;;5.60;5.17;;;;;;;14.36;nan;99204.44;4976044;28;20573;-81
2023/04/28 04:27:02;;;;;;;5.97;5.47;;;;;;;14.41;nan;99206.69;4979094;28;20204;-81
2023/04/28 04:29:33;;;;;;;6.38;4.18;;;;;;;14.44;nan;99212.53;4973652;28;21002;-82
2023/04/28 04:32:01;;;;;;;6.82;4.80;;;;;;;14.49;nan;99214.81;4970521;28;20262;-82
2023/04/28 04:34:27;;;;;;;8.00;4.93;;;;;;;14.52;nan;99210.09;4974934;28;20192;-82
2023/04/28 04:36:52;;;;;;;8.63;4.80;;;;;;;14.55;nan;99214.28;4978954;28;20223;-83
2023/04/28 04:39:18;;;;;;;7.47;4.77;;;;;;;14.56;nan;99211.53;4971552;28;20205;-82
2023/04/28 04:41:43;;;;;;;7.63;5.33;;;;;;;14.58;nan;99208.75;4981887;28;20847;-83
2023/04/28 04:44:32;;;;;;;5.88;4.50;;;;;;;14.59;nan;99216.56;4977479;28;20225;-82
2023/04/28 04:46:58;;;;;;;6.97;5.13;;;;;;;14.59;nan;99211.25;4983771;28;20291;-83
2023/04/28 04:49:24;;;;;;;6.55;5.25;;;;;;;14.61;nan;99208.50;4978433;28;20283;-81
2023/04/28 04:51:50;;;;;;;5.83;5.07;;;;;;;14.63;nan;99211.81;5000704;28;20208;-83
2023/04/28 04:54:16;;;;;;;7.10;4.53;;;;;;;14.64;nan;99208.22;4985735;28;20201;-81
2023/04/28 04:56:42;;;;;;;4.10;3.78;;;;;;;14.63;nan;99203.91;4989974;28;20196;-83
2023/04/28 04:59:08;;;;;;;6.90;5.30;;;;;;;14.62;nan;99211.97;5004763;28;20228;-82
2023/04/28 05:01:52;;;;;;;6.10;5.38;;;;;;;14.60;nan;99207.63;4977144;28;20218;-83
2023/04/28 05:04:18;;;;;;;5.53;5.00;;;;;;;14.62;nan;99204.03;4973206;28;20744;-81
2023/04/28 05:06:43;;;;;;;6.80;5.23;;;;;;;14.65;nan;99203.78;4975674;28;20247;-84
2023/04/28 05:09:09;;;;;;;5.95;4.30;;;;;;;14.69;nan;99202.53;4971936;28;20684;-82
2023/04/28 05:11:35;;;;;;;4.73;4.33;;;;;;;14.72;nan;99203.13;4976248;28;21032;-81
2023/04/28 05:14:01;;;;;;;6.25;4.50;;;;;;;14.76;nan;99206.31;4973675;28;20899;-81
2023/04/28 05:16:27;;;;;;;3.63;3.00;;;;;;;14.81;nan;99197.00;4976537;28;20224;-82
2023/04/28 05:18:59;;;;;;;8.77;4.10;;;;;;;14.86;nan;99201.06;4976008;28;20208;-83
2023/04/28 05:21:24;;;;;;;6.53;3.17;;;;;;;14.91;nan;99199.69;4980633;28;20239;-82
2023/04/28 05:23:50;;;;;;;5.10;2.63;;;;;;;14.96;nan;99201.91;4977365;28;20217;-83
2023/04/28 05:26:16;;;;;;;4.23;2.90;;;;;;;15.03;nan;99208.34;4980353;28;20244;-81
2023/04/28 05:28:41;;;;;;;3.23;2.93;;;;;;;15.08;nan;99208.78;4978753;28;20193;-80
2023/04/28 05:31:07;;;;;;;3.75;3.00;;;;;;;15.14;nan;99208.22;4980439;28;20272;-81
2023/04/28 05:33:32;;;;;;;4.47;2.93;;;;;;;15.18;nan;99204.34;4978660;28;20204;-82
2023/04/28 05:35:58;;;;;;;3.87;3.00;;;;;;;15.23;nan;99210.06;4977082;28;20205;-81
2023/04/28 05:38:24;;;;;;;4.30;2.90;;;;;;;15.28;nan;99204.34;4993063;28;20278;-82
2023/04/28 05:40:50;;;;;;;4.05;2.97;;;;;;;15.33;nan;99214.50;4977313;28;22584;-82
2023/04/28 05:43:16;;;;;;;4.10;3.40;;;;;;;15.35;nan;99207.28;4978931;28;21024;-82
2023/04/28 05:45:42;;;;;;;3.20;2.90;;;;;;;15.37;nan;99200.06;4958312;28;20478;-83
2023/04/28 05:48:07;;;;;;;3.70;3.10;;;;;;;15.41;nan;99204.06;4978061;28;20213;-82
2023/04/28 05:50:33;;;;;;;4.90;4.13;;;;;;;15.43;nan;99202.13;4978689;28;20330;-81
2023/04/28 05:52:59;;;;;;;3.25;2.83;;;;;;;15.47;nan;99200.88;4980613;28;20300;-81
2023/04/28 05:55:25;;;;;;;3.57;3.27;;;;;;;15.49;nan;99207.69;4981513;28;20300;-81
2023/04/28 05:57:52;;;;;;;5.00;3.50;;;;;;;15.51;nan;99204.91;4984602;28;20791;-82
2023/04/28 06:00:18;;;;;;;4.18;3.50;;;;;;;15.50;nan;99205.91;4983307;28;20514;-81
2023/04/28 06:02:43;;;;;;;4.43;2.93;;;;;;;15.51;nan;99199.63;4984849;28;20671;-81
2023/04/28 06:05:10;;;;;;;3.97;3.67;;;;;;;15.50;nan;99211.19;4989060;28;20210;-81
2023/04/28 06:07:35;;;;;;;5.97;4.10;;;;;;;15.48;nan;99207.84;4988468;28;20189;-81
2023/04/28 06:10:01;;;;;;;6.93;3.17;;;;;;;15.48;nan;99213.97;4986665;28;21012;-81
2023/04/28 06:12:26;;;;;;;4.03;3.63;;;;;;;15.45;nan;99211.59;4986409;28;20620;-81
2023/04/28 06:14:54;;;;;;;5.80;4.10;;;;;;;15.43;nan;99215.38;4979564;28;21426;-82
2023/04/28 06:17:20;;;;;;;4.50;3.80;;;;;;;15.41;nan;99215.50;4980968;28;20208;-80
2023/04/28 06:19:45;;;;;;;5.40;3.37;;;;;;;15.40;nan;99213.84;4982236;28;20342;-81
2023/04/28 06:22:11;;;;;;;5.00;3.80;;;;;;;15.36;nan;99212.41;4985556;28;20255;-81
2023/04/28 06:24:37;;;;;;;5.63;4.47;;;;;;;15.34;nan;99224.13;4982757;28;20214;-81
2023/04/28 06:27:05;;;;;;;4.47;3.22;;;;;;;15.32;nan;99213.69;4972133;28;20199;-80
2023/04/28 06:29:30;;;;;;;5.90;3.27;;;;;;;15.32;nan;99212.84;4996387;28;20693;-82
2023/04/28 06:31:56;;;;;;;4.37;3.93;;;;;;;15.32;nan;99215.50;4986690;28;20193;-81
2023/04/28 06:34:27;;;;;;;6.70;4.27;;;;;;;15.32;nan;99226.91;4981040;28;20206;-81
2023/04/28 06:36:54;;;;;;;6.07;3.63;;;;;;;15.32;nan;99218.97;4987374;28;20467;-82
2023/04/28 06:39:19;;;;;;;4.18;3.78;;;;;;;15.33;nan;99225.09;4987200;28;23026;-82
2023/04/28 06:41:46;;;;;;;4.53;3.10;;;;;;;15.32;nan;99207.56;4982373;28;21103;-82
2023/04/28 06:44:12;;;;;;;4.28;3.65;;;;;;;15.31;nan;99230.53;4988388;28;20719;-82
2023/04/28 06:46:37;;;;;;;4.32;3.70;;;;;;;15.30;nan;99239.44;4982223;28;20210;-81
2023/04/28 06:49:03;;;;;;;4.40;3.80;;;;;;;15.30;nan;99238.59;4977055;28;20214;-81
2023/04/28 06:51:31;;;;;;;4.67;4.00;;;;;;;15.28;nan;99241.38;4981090;28;20201;-81
2023/04/28 06:53:57;;;;;;;4.75;4.22;;;;;;;15.25;nan;99244.31;4977302;28;20209;-80
2023/04/28 06:56:23;;;;;;;5.70;5.20;;;;;;;15.23;nan;99249.75;4962963;28;20239;-82
2023/04/28 06:58:48;;;;;;;6.27;4.60;;;;;;;15.22;nan;99250.69;4976956;28;20459;-81
2023/04/28 07:01:14;;;;;;;6.37;4.47;;;;;;;15.21;nan;99248.22;4977302;28;20204;-80
2023/04/28 07:03:39;;;;;;;10.20;3.97;;;;;;;15.17;nan;99250.28;4976947;28;20208;-82
2023/04/28 07:06:05;;;;;;;6.53;5.13;;;;;;;15.18;nan;99244.03;4979689;28;20446;-81
2023/04/28 07:08:31;;;;;;;9.83;5.07;;;;;;;15.19;nan;99258.91;4983503;28;20209;-82
2023/04/28 07:10:56;;;;;;;4.20;3.70;;;;;;;15.19;nan;99253.63;4978774;28;20249;-81
2023/04/28 07:13:22;;;;;;;5.60;4.60;;;;;;;15.19;nan;99258.91;4978986;28;20213;-81
2023/04/28 07:15:47;;;;;;;5.00;4.03;;;;;;;15.20;nan;99251.81;4985103;28;20201;-86
2023/04/28 07:18:12;;;;;;;3.50;3.20;;;;;;;15.21;nan;99251.69;4988906;28;20623;-85
2023/04/28 07:20:38;;;;;;;8.63;4.90;;;;;;;15.24;nan;99264.63;4989177;28;20212;-84
2023/04/28 07:23:03;;;;;;;7.63;4.63;;;;;;;15.29;nan;99260.75;4988643;28;20594;-84
2023/04/28 07:25:29;;;;;;;5.60;4.47;;;;;;;15.29;nan;99255.47;4992987;28;20253;-85
2023/04/28 07:27:55;;;;;;;5.50;4.70;;;;;;;15.32;nan;99250.72;4994481;28;20975;-86
2023/04/28 07:30:20;;;;;;;5.63;4.47;;;;;;;15.37;nan;99263.56;4994275;28;20217;-83
2023/04/28 07:32:47;;;;;;;4.03;3.63;;;;;;;15.41;nan;99249.06;4988032;28;20209;-84
2023/04/28 07:35:13;;;;;;;5.90;3.63;;;;;;;15.42;nan;99250.75;4995725;28;20446;-85
2023/04/28 07:37:38;;;;;;;4.70;3.80;;;;;;;15.45;nan;99255.78;4995238;28;20240;-84
2023/04/28 07:40:05;;;;;;;3.70;3.40;;;;;;;15.48;nan;99253.69;4989391;28;20208;-85
2023/04/28 07:42:31;;;;;;;5.43;3.30;;;;;;;15.49;nan;99257.16;5002312;28;20283;-86
2023/04/28 07:44:57;;;;;;;4.60;3.40;;;;;;;15.50;nan;99258.84;4991409;28;20282;-85
2023/04/28 07:47:23;;;;;;;4.95;3.72;;;;;;;15.51;nan;99247.28;4995148;28;20205;-83
2023/04/28 07:49:49;;;;;;;5.13;3.60;;;;;;;15.53;nan;99255.91;4999668;28;20223;-84
2023/04/28 07:52:15;;;;;;;4.70;3.70;;;;;;;15.55;nan;99255.78;4996185;28;20475;-84
2023/04/28 07:54:40;;;;;;;5.70;4.10;;;;;;;15.57;nan;99254.66;4992452;28;20245;-84
2023/04/28 07:57:06;;;;;;;4.07;3.33;;;;;;;15.58;nan;99256.34;4991084;28;20684;-84
2023/04/28 07:59:35;;;;;;;3.93;3.53;;;;;;;15.60;nan;99264.97;4993597;28;20204;-85
2023/04/28 08:02:00;;;;;;;8.20;3.15;;;;;;;15.62;nan;99256.91;4997333;28;20221;-86
2023/04/28 08:04:26;;;;;;;4.97;2.90;;;;;;;15.68;nan;99261.63;4989192;28;20539;-87
2023/04/28 08:06:52;;;;;;;4.40;3.30;;;;;;;15.70;nan;99271.16;4991278;28;20456;-83
2023/04/28 08:09:18;;;;;;;5.00;3.63;;;;;;;15.72;nan;99272.84;4997498;28;20234;-84
2023/04/28 08:11:43;;;;;;;4.00;3.43;;;;;;;15.74;nan;99278.81;4986041;28;20208;-84
2023/04/28 08:14:08;;;;;;;4.80;3.27;;;;;;;15.76;nan;99279.50;4996424;28;20197;-83
2023/04/28 08:16:37;;;;;;;5.20;3.20;;;;;;;15.77;nan;99279.38;4994238;28;20747;-85
2023/04/28 08:19:02;;;;;;;10.95;4.30;;;;;;;15.79;nan;99284.53;5000406;28;20273;-85
2023/04/28 08:21:28;;;;;;;5.30;3.10;;;;;;;15.80;nan;99287.06;4989649;28;20431;-85
2023/04/28 08:23:53;;;;;;;4.43;2.90;;;;;;;15.81;nan;99293.19;4994897;28;20227;-85
2023/04/28 08:26:19;;;;;;;4.23;3.77;;;;;;;15.82;nan;99302.78;5002060;28;20208;-85
2023/04/28 08:28:44;;;;;;;3.70;3.40;;;;;;;15.82;nan;99298.31;5001404;28;20220;-83
2023/04/28 08:31:10;;;;;;;7.83;4.20;;;;;;;15.86;nan;99296.25;4998896;28;20219;-85
2023/04/28 08:33:35;;;;;;;3.90;3.60;;;;;;;15.86;nan;99294.44;4995773;28;20210;-83
2023/04/28 08:36:01;;;;;;;4.40;3.90;;;;;;;15.90;nan;99313.53;5002872;28;20436;-84
2023/04/28 08:38:27;;;;;;;4.57;3.83;;;;;;;15.89;nan;99310.03;4991747;28;21095;-85
2023/04/28 08:40:53;;;;;;;4.70;3.20;;;;;;;15.89;nan;99312.69;5000468;28;20217;-84
2023/04/28 08:43:20;;;;;;;3.90;3.60;;;;;;;15.89;nan;99312.69;5003671;28;20260;-84
2023/04/28 08:45:45;;;;;;;4.45;3.35;;;;;;;15.91;nan;99315.22;5000410;28;20262;-88
2023/04/28 08:48:19;;;;;;;4.00;3.00;;;;;;;15.91;nan;99323.16;4990931;28;21394;-87
2023/04/28 08:50:50;;;;;;;4.10;3.45;;;;;;;15.91;nan;99299.31;4998690;28;20203;-86
2023/04/28 08:53:25;;;;;;;4.60;4.20;;;;;;;15.95;nan;99289.28;4998254;28;20197;-84
2023/04/28 08:55:55;;;;;;;3.67;3.28;;;;;;;15.97;nan;99287.31;4999597;28;20198;-85
2023/04/28 08:58:22;;;;;;;4.80;3.75;;;;;;;15.97;nan;99284.69;4997424;28;20636;-85
2023/04/28 09:00:49;;;;;;;4.72;3.25;;;;;;;15.98;nan;99289.81;4989798;28;20215;-85
2023/04/28 09:03:15;;;;;;;4.28;3.88;;;;;;;16.03;nan;99292.88;4999374;28;20207;-84
2023/04/28 09:05:40;;;;;;;5.23;4.13;;;;;;;16.06;nan;99294.41;4993688;28;20259;-84
2023/04/28 09:08:05;;;;;;;4.90;3.67;;;;;;;16.05;nan;99306.00;4988333;28;20297;-84
2023/04/28 09:10:31;;;;;;;5.50;5.00;;;;;;;16.04;nan;99310.47;4996379;28;20239;-85
2023/04/28 09:12:57;;;;;;;5.70;4.00;;;;;;;16.06;nan;99323.56;4997673;28;20209;-84
2023/04/28 09:15:26;;;;;;;6.43;4.00;;;;;;;16.08;nan;99321.63;5002663;28;20196;-84
2023/04/28 09:17:52;;;;;;;5.32;4.30;;;;;;;16.10;nan;99331.09;4994342;28;20269;-87
2023/04/28 09:20:24;;;;;;;6.00;3.70;;;;;;;16.13;nan;99336.13;4993608;28;20205;-85
2023/04/28 09:22:52;;;;;;;4.57;4.22;;;;;;;16.14;nan;99337.78;4996038;28;20203;-86
2023/04/28 09:25:20;;;;;;;7.90;3.53;;;;;;;16.18;nan;99341.00;4986789;28;20219;-87
2023/04/28 09:27:45;;;;;;;8.38;4.57;;;;;;;16.19;nan;99344.50;4997531;28;20694;-87
2023/04/28 09:30:11;;;;;;;5.30;4.37;;;;;;;16.20;nan;99340.84;4996042;28;20206;-85
2023/04/28 09:32:37;;;;;;;5.40;4.40;;;;;;;16.21;nan;99335.44;4987691;28;20190;-85
2023/04/28 09:35:03;;;;;;;5.30;4.63;;;;;;;16.25;nan;99333.31;4991883;28;21207;-84
2023/04/28 09:37:30;;;;;;;4.57;4.13;;;;;;;16.26;nan;99340.31;4988292;28;20215;-86
2023/04/28 09:40:02;;;;;;;6.22;3.55;;;;;;;16.29;nan;99340.03;4990115;28;20234;-84
2023/04/28 09:42:32;;;;;;;5.25;3.63;;;;;;;16.30;nan;99342.53;4994542;28;20209;-85
2023/04/28 09:44:58;;;;;;;7.68;4.10;;;;;;;16.32;nan;99340.56;4987344;28;20803;-84
2023/04/28 09:47:24;;;;;;;4.57;3.90;;;;;;;16.37;nan;99342.81;5000264;28;20218;-86
2023/04/28 09:49:58;;;;;;;7.27;4.50;;;;;;;16.41;nan;99336.22;4994877;28;22797;-85
2023/04/28 09:52:24;;;;;;;4.63;3.45;;;;;;;16.45;nan;99340.28;4987517;28;21039;-86
2023/04/28 09:54:52;;;;;;;5.70;3.63;;;;;;;16.49;nan;99325.75;5001990;28;20229;-85
2023/04/28 09:57:17;;;;;;;5.15;4.28;;;;;;;16.54;nan;99330.63;4982431;28;20263;-87
2023/04/28 09:59:47;;;;;;;5.57;4.37;;;;;;;16.60;nan;99333.53;4989796;28;20211;-84
2023/04/28 10:02:16;;;;;;;3.70;3.40;;;;;;;16.64;nan;99334.13;4988545;28;20208;-84
2023/04/28 10:04:43;;;;;;;5.85;4.32;;;;;;;16.65;nan;99340.25;4993959;28;20205;-86
2023/04/28 10:07:11;;;;;;;7.60;4.57;;;;;;;16.66;nan;99337.47;4989386;28;20207;-86
2023/04/28 10:09:37;;;;;;;4.45;4.00;;;;;;;16.71;nan;99339.66;4982067;28;20219;-84
2023/04/28 10:12:04;;;;;;;4.47;3.10;;;;;;;16.77;nan;99336.50;4993611;28;20923;-84
2023/04/28 10:14:31;;;;;;;4.70;3.60;;;;;;;16.84;nan;99334.91;4991218;28;20197;-81
2023/04/28 10:16:58;;;;;;;4.88;4.38;;;;;;;16.93;nan;99334.06;4989903;28;20479;-84
2023/04/28 10:19:24;;;;;;;4.20;3.80;;;;;;;17.03;nan;99331.34;4991062;28;20220;-86
2023/04/28 10:22:12;;;;;;;4.43;3.97;;;;;;;17.18;nan;99332.56;4994601;28;20203;-86
2023/04/28 10:24:57;;;;;;;5.45;4.30;;;;;;;17.31;nan;99324.28;4993638;28;20222;-85
2023/04/28 10:27:29;;;;;;;5.65;4.95;;;;;;;17.45;nan;99328.25;4996948;28;20626;-84
2023/04/28 10:30:12;;;;;;;6.10;4.30;;;;;;;17.50;nan;99319.81;4982335;28;20212;-86
2023/04/28 10:32:39;;;;;;;7.13;4.70;;;;;;;17.54;nan;99329.16;4990571;28;20281;-86
2023/04/28 10:35:27;;;;;;;6.75;4.85;;;;;;;17.63;nan;99322.94;4986138;28;20462;-84
2023/04/28 10:38:05;;;;;;;5.47;4.93;;;;;;;17.70;nan;99326.69;4986930;28;20207;-87
2023/04/28 10:40:35;;;;;;;4.43;4.03;;;;;;;17.78;nan;99318.78;4991454;28;20263;-84
2023/04/28 10:43:01;;;;;;;4.20;3.80;;;;;;;17.87;nan;99317.91;4991180;28;20758;-87
2023/04/28 10:45:52;;;;;;;4.35;3.90;;;;;;;17.98;nan;99314.19;4989189;28;20679;-86
2023/04/28 10:48:18;;;;;;;6.13;4.43;;;;;;;18.04;nan;99310.94;4992085;28;20200;-85
2023/04/28 10:51:02;;;;;;;6.30;4.47;;;;;;;18.10;nan;99312.16;4998700;28;20229;-84
2023/04/28 10:53:50;;;;;;;6.30;4.57;;;;;;;18.14;nan;99308.19;5002009;28;20967;-85
2023/04/28 10:56:24;;;;;;;4.63;3.97;;;;;;;18.23;nan;99317.09;4990874;28;20857;-88
2023/04/28 10:58:56;;;;;;;4.33;3.47;;;;;;;18.29;nan;99311.16;4985796;28;20453;-85
2023/04/28 11:01:24;;;;;;;4.83;4.33;;;;;;;18.33;nan;99316.00;5010999;28;20467;-89
2023/04/28 11:04:03;;;;;;;5.13;3.80;;;;;;;18.39;nan;99308.38;5002198;28;20549;-88
2023/04/28 11:06:33;;;;;;;4.03;3.50;;;;;;;18.54;nan;99315.63;4999611;28;20905;-89
2023/04/28 11:09:11;;;;;;;5.33;3.90;;;;;;;18.65;nan;99301.25;5004993;28;20954;-85
2023/04/28 11:11:38;;;;;;;5.43;3.30;;;;;;;18.76;nan;99303.66;4993111;28;20450;-87
2023/04/28 11:14:19;;;;;;;4.93;3.67;;;;;;;18.91;nan;99301.28;5002272;28;20457;-86
2023/04/28 11:17:01;;;;;;;4.20;3.43;;;;;;;19.04;nan;99290.19;5001643;28;21155;-90
2023/04/28 11:19:29;;;;;;;7.03;4.53;;;;;;;19.17;nan;99301.22;4996950;28;20512;-85
2023/04/28 11:21:56;;;;;;;3.83;3.50;;;;;;;19.34;nan;99291.47;4991560;28;20466;-89
2023/04/28 11:24:24;;;;;;;6.97;3.07;;;;;;;19.49;nan;99280.19;5001134;28;21158;-85
2023/04/28 11:26:50;;;;;;;3.60;3.30;;;;;;;19.61;nan;99277.03;4993206;28;20448;-85
2023/04/28 11:29:15;;;;;;;4.47;4.07;;;;;;;19.73;nan;99271.44;4999211;28;20468;-91
2023/04/28 11:31:50;;;;;;;4.20;3.80;;;;;;;19.93;nan;99280.78;5001302;28;20194;-86
2023/04/28 11:34:18;;;;;;;3.43;2.87;;;;;;;20.12;nan;99276.97;4997133;28;20190;-86
2023/04/28 11:36:44;;;;;;;2.70;2.50;;;;;;;20.21;nan;99283.13;5000362;28;20448;-85
2023/04/28 11:39:11;;;;;;;4.33;2.83;;;;;;;20.25;nan;99287.97;4997806;28;20456;-90
2023/04/28 11:41:42;;;;;;;2.60;2.10;;;;;;;20.38;nan;99276.75;4999078;28;20755;-87
2023/04/28 11:44:12;;;;;;;2.90;2.63;;;;;;;20.53;nan;99261.75;5001790;28;20563;-87
2023/04/28 11:46:55;;;;;;;2.30;2.10;;;;;;;20.68;nan;99258.38;5003286;28;20550;-86
2023/04/28 11:49:24;;;;;;;3.10;2.80;;;;;;;20.76;nan;99247.69;5001219;28;20486;-91
2023/04/28 11:51:53;;;;;;;3.47;2.53;;;;;;;20.81;nan;99253.34;5000157;28;20539;-88